Terminal Aerodrome Forecast
Issued by NWS Charleston, WV

Current Version | Previous Version | Text Only | Print | Product List | Glossary Off
Versions: 1 2 3 4 5 6 7 8 9 10 11 12 13 14 15 16 17 18 19 20 21

000
FTUS41 KRLX 152100 AAA
TAFPKB
TAF AMD
KPKB 152113Z 1521/1618 31010G19KT P6SM BKN035
     FM160200 33006KT P6SM SCT100
     FM160400 33004KT P6SM SKC
     FM160600 00000KT P6SM SKC
     FM161700 09004KT P6SM SKC=

USA.gov is the U.S. government's official web portal to all federal, state and local government web resources and services.